Wind From: 13-12-2017 10:08 Until: 14-12-2017 06:00 warning for: Wind Level: Yellow info button

Although rather usual in this region, locally or potentially dangerous phenomena are expected. (such as local winds, summer thunderstorms, rising streams or high waves) Be aware and pay attention to the latest weather updates, especially if you carry out activities exposed to weather or close to a stream or shoreline. 


Meteo18 Weather Cam more information Meteo18 Weather Cam


Thunder radar more information blitzortung!


Rain radar more information rain snow radar


Visit our other weather sites:

Template documentation
and downloads

And another site



Weather Underground History page Text

Daily Summary for May 4, 2017 Units:  Both    English   Metric
« Previous Day
Next Day »
Daily Weekly Monthly Yearly Custom
  High: Low: Average:
Temperature: 60.4 °F /  15.8 °C 45.7 °F /  7.6 °C 51.1 °F /  10.6 °C
Dew Point: 48.2 °F /  9.0 °C 44.4 °F /  6.9 °C 46 °F /  7.8 °C
Humidity: 97 % 62 % 84 %
Wind Speed: 8 mph /  12.9 km/h - 1.6 mph /  2.5 km/h
Wind Gust: 11 mph /  17.7 km/h - -
Wind:- - ESE
Pressure: 30.1 in /  1018.8 hPa 30 in /  1016.1 hPa -
Precipitation: 0.01 in /  0.3 mm    
Historical Graphs
 
 
Tabular Data for May 4, 2017
Time Temperature Dew Point Pressure Wind Wind Speed Wind Gust Humidity Rainfall Rate (Hourly)
00:02 46.6 °F /  8.1 °C 45.1 °F /  7.3 °C 30.1 in /  1017.8 hPa Calm   3 mph /  4.8 km/h 95 % 0 in /  0.0 mm
00:12 46.6 °F /  8.1 °C 45.1 °F /  7.3 °C 30.1 in /  1017.8 hPa Calm   2 mph /  3.2 km/h 95 % 0 in /  0.0 mm
00:17 46.6 °F /  8.1 °C 45.1 °F /  7.3 °C 30.1 in /  1017.8 hPa Calm   2 mph /  3.2 km/h 95 % 0 in /  0.0 mm
00:22 46.6 °F /  8.1 °C 45.1 °F /  7.3 °C 30.1 in /  1017.8 hPa Calm     95 % 0 in /  0.0 mm
00:32 46.6 °F /  8.1 °C 45.1 °F /  7.3 °C 30.1 in /  1017.8 hPa Calm     95 % 0 in /  0.0 mm
00:37 46.6 °F /  8.1 °C 45.1 °F /  7.3 °C 30.1 in /  1017.8 hPa Calm     95 % 0 in /  0.0 mm
00:42 46.6 °F /  8.1 °C 45.1 °F /  7.3 °C 30.1 in /  1017.8 hPa Calm     95 % 0 in /  0.0 mm
00:47 46.6 °F /  8.1 °C 45.1 °F /  7.3 °C 30.1 in /  1017.8 hPa Calm     95 % 0 in /  0.0 mm
00:52 46.6 °F /  8.1 °C 45.5 °F /  7.5 °C 30.1 in /  1017.8 hPa Calm     96 % 0 in /  0.0 mm
00:57 46.6 °F /  8.1 °C 45.5 °F /  7.5 °C 30.1 in /  1017.8 hPa Calm     96 % 0 in /  0.0 mm
01:02 46.6 °F /  8.1 °C 45.5 °F /  7.5 °C 30.1 in /  1017.8 hPa Calm     96 % 0 in /  0.0 mm
01:07 46.6 °F /  8.1 °C 45.5 °F /  7.5 °C 30.1 in /  1017.8 hPa Calm     96 % 0 in /  0.0 mm
01:12 46.6 °F /  8.1 °C 45.5 °F /  7.5 °C 30.1 in /  1017.8 hPa Calm     96 % 0 in /  0.0 mm
01:17 46.6 °F /  8.1 °C 45.5 °F /  7.5 °C 30.1 in /  1017.8 hPa Calm     96 % 0 in /  0.0 mm
01:22 46.6 °F /  8.1 °C 45.5 °F /  7.5 °C 30.1 in /  1017.5 hPa Calm     96 % 0 in /  0.0 mm
01:27 46.6 °F /  8.1 °C 45.5 °F /  7.5 °C 30.1 in /  1017.5 hPa Calm     96 % 0 in /  0.0 mm
01:32 46.6 °F /  8.1 °C 45.5 °F /  7.5 °C 30.1 in /  1017.5 hPa Calm     96 % 0 in /  0.0 mm
01:37 46.4 °F /  8.0 °C 45.3 °F /  7.4 °C 30.1 in /  1017.5 hPa Calm     96 % 0 in /  0.0 mm
01:42 46.6 °F /  8.1 °C 45.5 °F /  7.5 °C 30.1 in /  1017.5 hPa Calm     96 % 0 in /  0.0 mm
01:47 46.6 °F /  8.1 °C 45.5 °F /  7.5 °C 30.1 in /  1017.5 hPa Calm     96 % 0 in /  0.0 mm
01:52 46.6 °F /  8.1 °C 45.5 °F /  7.5 °C 30.1 in /  1017.5 hPa Calm     96 % 0 in /  0.0 mm
01:57 46.6 °F /  8.1 °C 45.5 °F /  7.5 °C 30.1 in /  1017.5 hPa Calm     96 % 0 in /  0.0 mm
02:02 46.6 °F /  8.1 °C 45.5 °F /  7.5 °C 30.1 in /  1017.5 hPa Calm     96 % 0 in /  0.0 mm
02:07 46.6 °F /  8.1 °C 45.5 °F /  7.5 °C 30.1 in /  1017.5 hPa Calm     96 % 0 in /  0.0 mm
02:12 46.4 °F /  8.0 °C 45.3 °F /  7.4 °C 30 in /  1017.2 hPa Calm     96 % 0 in /  0.0 mm
02:17 46.2 °F /  7.9 °C 45.1 °F /  7.3 °C 30 in /  1017.2 hPa Calm     96 % 0 in /  0.0 mm
02:22 46.2 °F /  7.9 °C 45.1 °F /  7.3 °C 30 in /  1017.2 hPa Calm     96 % 0 in /  0.0 mm
02:27 46.2 °F /  7.9 °C 45.1 °F /  7.3 °C 30 in /  1017.2 hPa Calm     96 % 0 in /  0.0 mm
02:32 46.2 °F /  7.9 °C 45.1 °F /  7.3 °C 30 in /  1017.2 hPa Calm     96 % 0 in /  0.0 mm
02:37 46.2 °F /  7.9 °C 45.1 °F /  7.3 °C 30 in /  1017.2 hPa Calm     96 % 0 in /  0.0 mm
02:42 46.2 °F /  7.9 °C 45.1 °F /  7.3 °C 30 in /  1017.2 hPa Calm     96 % 0 in /  0.0 mm
02:47 46.2 °F /  7.9 °C 45.1 °F /  7.3 °C 30 in /  1017.2 hPa Calm     96 % 0 in /  0.0 mm
02:52 46.2 °F /  7.9 °C 45.1 °F /  7.3 °C 30 in /  1017.2 hPa Calm     96 % 0 in /  0.0 mm
02:57 46.2 °F /  7.9 °C 45.1 °F /  7.3 °C 30 in /  1017.2 hPa Calm     96 % 0 in /  0.0 mm
03:02 46.2 °F /  7.9 °C 45.1 °F /  7.3 °C 30 in /  1016.8 hPa Calm     96 % 0 in /  0.0 mm
03:07 46.4 °F /  8.0 °C 45.3 °F /  7.4 °C 30 in /  1016.8 hPa Calm     96 % 0 in /  0.0 mm
03:12 46.4 °F /  8.0 °C 45.3 °F /  7.4 °C 30 in /  1016.8 hPa Calm   1 mph /  1.6 km/h 96 % 0 in /  0.0 mm
03:17 46.4 °F /  8.0 °C 45.3 °F /  7.4 °C 30 in /  1016.8 hPa Calm   1 mph /  1.6 km/h 96 % 0 in /  0.0 mm
03:22 46.4 °F /  8.0 °C 45.3 °F /  7.4 °C 30 in /  1016.8 hPa NNE 1 mph /  1.6 km/h 2 mph /  3.2 km/h 96 % 0 in /  0.0 mm
03:27 46.6 °F /  8.1 °C 45.5 °F /  7.5 °C 30 in /  1016.8 hPa NNW 1 mph /  1.6 km/h 2 mph /  3.2 km/h 96 % 0 in /  0.0 mm
03:32 46.6 °F /  8.1 °C 45.5 °F /  7.5 °C 30 in /  1016.8 hPa NNW 1 mph /  1.6 km/h 3 mph /  4.8 km/h 96 % 0 in /  0.0 mm
03:37 46.6 °F /  8.1 °C 45.5 °F /  7.5 °C 30 in /  1016.8 hPa North 3 mph /  4.8 km/h 3 mph /  4.8 km/h 96 % 0 in /  0.0 mm
03:42 46.6 °F /  8.1 °C 45.5 °F /  7.5 °C 30 in /  1016.8 hPa Calm   3 mph /  4.8 km/h 96 % 0 in /  0.0 mm
03:47 46.6 °F /  8.1 °C 45.5 °F /  7.5 °C 30 in /  1016.8 hPa Calm   3 mph /  4.8 km/h 96 % 0 in /  0.0 mm
03:52 46.6 °F /  8.1 °C 45.5 °F /  7.5 °C 30 in /  1016.5 hPa Calm   3 mph /  4.8 km/h 96 % 0 in /  0.0 mm
03:57 46.6 °F /  8.1 °C 45.5 °F /  7.5 °C 30 in /  1016.5 hPa North 1 mph /  1.6 km/h 3 mph /  4.8 km/h 96 % 0 in /  0.0 mm
04:02 46.6 °F /  8.1 °C 45.5 °F /  7.5 °C 30 in /  1016.5 hPa NNE 1 mph /  1.6 km/h 2 mph /  3.2 km/h 96 % 0 in /  0.0 mm
04:07 46.6 °F /  8.1 °C 45.5 °F /  7.5 °C 30 in /  1016.5 hPa Calm   3 mph /  4.8 km/h 96 % 0 in /  0.0 mm
04:12 46.4 °F /  8.0 °C 45.3 °F /  7.4 °C 30 in /  1016.5 hPa Calm   3 mph /  4.8 km/h 96 % 0 in /  0.0 mm
04:17 46.4 °F /  8.0 °C 45.3 °F /  7.4 °C 30 in /  1016.5 hPa NNW 1 mph /  1.6 km/h 3 mph /  4.8 km/h 96 % 0 in /  0.0 mm
04:22 46.4 °F /  8.0 °C 45.3 °F /  7.4 °C 30 in /  1016.1 hPa NNE 1 mph /  1.6 km/h 3 mph /  4.8 km/h 96 % 0 in /  0.0 mm
04:32 46.2 °F /  7.9 °C 45.1 °F /  7.3 °C 30 in /  1016.1 hPa North 2 mph /  3.2 km/h 3 mph /  4.8 km/h 96 % 0 in /  0.0 mm
04:37 46.2 °F /  7.9 °C 45.1 °F /  7.3 °C 30 in /  1016.1 hPa Calm   4 mph /  6.4 km/h 96 % 0 in /  0.0 mm
04:42 46 °F /  7.8 °C 45 °F /  7.2 °C 30 in /  1016.1 hPa Calm   4 mph /  6.4 km/h 96 % 0 in /  0.0 mm
04:47 46 °F /  7.8 °C 45 °F /  7.2 °C 30 in /  1016.5 hPa Calm   4 mph /  6.4 km/h 96 % 0 in /  0.0 mm
04:52 45.9 °F /  7.7 °C 44.8 °F /  7.1 °C 30 in /  1016.5 hPa Calm   2 mph /  3.2 km/h 96 % 0 in /  0.0 mm
04:57 45.9 °F /  7.7 °C 44.8 °F /  7.1 °C 30 in /  1016.5 hPa Calm   1 mph /  1.6 km/h 96 % 0 in /  0.0 mm
05:02 45.9 °F /  7.7 °C 44.8 °F /  7.1 °C 30 in /  1016.5 hPa Calm     96 % 0 in /  0.0 mm
05:07 45.7 °F /  7.6 °C 44.6 °F /  7.0 °C 30 in /  1016.5 hPa Calm     96 % 0 in /  0.0 mm
05:12 45.9 °F /  7.7 °C 44.8 °F /  7.1 °C 30 in /  1016.5 hPa Calm     96 % 0 in /  0.0 mm
05:17 45.9 °F /  7.7 °C 44.8 °F /  7.1 °C 30 in /  1016.5 hPa Calm     96 % 0 in /  0.0 mm
05:22 45.7 °F /  7.6 °C 44.6 °F /  7.0 °C 30 in /  1016.1 hPa Calm   1 mph /  1.6 km/h 96 % 0 in /  0.0 mm
05:32 45.9 °F /  7.7 °C 45.1 °F /  7.3 °C 30 in /  1016.5 hPa Calm   1 mph /  1.6 km/h 97 % 0 in /  0.0 mm
05:42 45.9 °F /  7.7 °C 44.8 °F /  7.1 °C 30 in /  1016.1 hPa NNW 1 mph /  1.6 km/h 4 mph /  6.4 km/h 96 % 0 in /  0.0 mm
05:47 45.9 °F /  7.7 °C 44.8 °F /  7.1 °C 30 in /  1016.1 hPa NNW 1 mph /  1.6 km/h 4 mph /  6.4 km/h 96 % 0 in /  0.0 mm
05:52 45.9 °F /  7.7 °C 44.8 °F /  7.1 °C 30 in /  1016.1 hPa Calm   4 mph /  6.4 km/h 96 % 0 in /  0.0 mm
05:57 46 °F /  7.8 °C 45.3 °F /  7.4 °C 30 in /  1016.1 hPa NNW 2 mph /  3.2 km/h 3 mph /  4.8 km/h 97 % 0 in /  0.0 mm
06:02 46 °F /  7.8 °C 45 °F /  7.2 °C 30 in /  1016.1 hPa Calm   3 mph /  4.8 km/h 96 % 0 in /  0.0 mm
06:12 45.9 °F /  7.7 °C 44.8 °F /  7.1 °C 30 in /  1016.1 hPa Calm   3 mph /  4.8 km/h 96 % 0 in /  0.0 mm
06:17 45.9 °F /  7.7 °C 44.8 °F /  7.1 °C 30 in /  1016.1 hPa Calm   3 mph /  4.8 km/h 96 % 0 in /  0.0 mm
06:22 45.9 °F /  7.7 °C 44.8 °F /  7.1 °C 30 in /  1016.1 hPa Calm   3 mph /  4.8 km/h 96 % 0 in /  0.0 mm
06:32 46 °F /  7.8 °C 45.3 °F /  7.4 °C 30 in /  1016.1 hPa Calm   2 mph /  3.2 km/h 97 % 0 in /  0.0 mm
06:42 45.9 °F /  7.7 °C 44.8 °F /  7.1 °C 30 in /  1016.1 hPa Calm   2 mph /  3.2 km/h 96 % 0 in /  0.0 mm
06:52 46 °F /  7.8 °C 45.3 °F /  7.4 °C 30 in /  1016.1 hPa Calm     97 % 0 in /  0.0 mm
07:02 46.2 °F /  7.9 °C 45.5 °F /  7.5 °C 30 in /  1016.1 hPa NNE 2 mph /  3.2 km/h 2 mph /  3.2 km/h 97 % 0 in /  0.0 mm
07:12 46.2 °F /  7.9 °C 45.5 °F /  7.5 °C 30 in /  1016.1 hPa North 2 mph /  3.2 km/h 4 mph /  6.4 km/h 97 % 0 in /  0.0 mm
07:17 46.2 °F /  7.9 °C 45.5 °F /  7.5 °C 30 in /  1016.1 hPa NNW 2 mph /  3.2 km/h 4 mph /  6.4 km/h 97 % 0 in /  0.0 mm
07:27 46.4 °F /  8.0 °C 45.7 °F /  7.6 °C 30 in /  1016.1 hPa NE 1 mph /  1.6 km/h 5 mph /  8.0 km/h 97 % 0 in /  0.0 mm
07:32 46.4 °F /  8.0 °C 45.7 °F /  7.6 °C 30 in /  1016.1 hPa Calm   5 mph /  8.0 km/h 97 % 0 in /  0.0 mm
07:37 46.4 °F /  8.0 °C 45.7 °F /  7.6 °C 30 in /  1016.1 hPa Calm   5 mph /  8.0 km/h 97 % 0 in /  0.0 mm
07:42 46.6 °F /  8.1 °C 45.9 °F /  7.7 °C 30 in /  1016.1 hPa Calm   5 mph /  8.0 km/h 97 % 0 in /  0.0 mm
07:47 46.6 °F /  8.1 °C 45.9 °F /  7.7 °C 30 in /  1016.1 hPa NNW 2 mph /  3.2 km/h 2 mph /  3.2 km/h 97 % 0 in /  0.0 mm
07:52 46.4 °F /  8.0 °C 45.3 °F /  7.4 °C 30 in /  1016.1 hPa North 2 mph /  3.2 km/h 2 mph /  3.2 km/h 96 % 0 in /  0.0 mm
07:57 46.2 °F /  7.9 °C 45.1 °F /  7.3 °C 30 in /  1016.1 hPa NNW 1 mph /  1.6 km/h 2 mph /  3.2 km/h 96 % 0 in /  0.0 mm
08:02 46.2 °F /  7.9 °C 45.1 °F /  7.3 °C 30 in /  1016.1 hPa Calm   2 mph /  3.2 km/h 96 % 0 in /  0.0 mm
08:07 46 °F /  7.8 °C 45 °F /  7.2 °C 30 in /  1016.1 hPa Calm   2 mph /  3.2 km/h 96 % 0 in /  0.0 mm
08:12 46 °F /  7.8 °C 45 °F /  7.2 °C 30 in /  1016.1 hPa Calm   2 mph /  3.2 km/h 96 % 0 in /  0.0 mm
08:17 46 °F /  7.8 °C 45 °F /  7.2 °C 30 in /  1016.1 hPa Calm   2 mph /  3.2 km/h 96 % 0 in /  0.0 mm
08:22 46 °F /  7.8 °C 45 °F /  7.2 °C 30 in /  1016.1 hPa Calm   2 mph /  3.2 km/h 96 % 0 in /  0.0 mm
08:27 46.2 °F /  7.9 °C 45.5 °F /  7.5 °C 30 in /  1016.1 hPa Calm   2 mph /  3.2 km/h 97 % 0 in /  0.0 mm
08:32 46.2 °F /  7.9 °C 45.5 °F /  7.5 °C 30 in /  1016.1 hPa Calm   1 mph /  1.6 km/h 97 % 0 in /  0.0 mm
08:37 46.6 °F /  8.1 °C 45.9 °F /  7.7 °C 30 in /  1016.1 hPa Calm   1 mph /  1.6 km/h 97 % 0 in /  0.0 mm
08:42 46.9 °F /  8.3 °C 46.2 °F /  7.9 °C 30 in /  1016.1 hPa Calm     97 % 0 in /  0.0 mm
08:47 46.9 °F /  8.3 °C 45.9 °F /  7.7 °C 30 in /  1016.1 hPa Calm     96 % 0 in /  0.0 mm
08:52 47.5 °F /  8.6 °C 46.8 °F /  8.2 °C 30 in /  1016.1 hPa Calm     97 % 0 in /  0.0 mm
09:02 47.5 °F /  8.6 °C 46.4 °F /  8.0 °C 30 in /  1016.5 hPa NE 1 mph /  1.6 km/h 3 mph /  4.8 km/h 96 % 0 in /  0.0 mm
09:12 48.6 °F /  9.2 °C 47.5 °F /  8.6 °C 30 in /  1016.1 hPa NNW 1 mph /  1.6 km/h 3 mph /  4.8 km/h 96 % 0 in /  0.0 mm
09:17 49.1 °F /  9.5 °C 47.7 °F /  8.7 °C 30 in /  1016.1 hPa NE 3 mph /  4.8 km/h 3 mph /  4.8 km/h 95 % 0 in /  0.0 mm
09:22 48.7 °F /  9.3 °C 46.8 °F /  8.2 °C 30 in /  1016.1 hPa NNE 3 mph /  4.8 km/h 5 mph /  8.0 km/h 93 % 0 in /  0.0 mm
09:32 48.6 °F /  9.2 °C 46.6 °F /  8.1 °C 30 in /  1016.5 hPa NNE 2 mph /  3.2 km/h 5 mph /  8.0 km/h 93 % 0.01 in /  0.3 mm
09:37 48.7 °F /  9.3 °C 46.8 °F /  8.2 °C 30 in /  1016.1 hPa Calm   5 mph /  8.0 km/h 93 % 0.01 in /  0.3 mm
09:42 49.3 °F /  9.6 °C 46.8 °F /  8.2 °C 30 in /  1016.5 hPa East 4 mph /  6.4 km/h 4 mph /  6.4 km/h 91 % 0.01 in /  0.3 mm
09:47 49.3 °F /  9.6 °C 46.8 °F /  8.2 °C 30 in /  1016.5 hPa ENE 1 mph /  1.6 km/h 5 mph /  8.0 km/h 91 % 0.01 in /  0.3 mm
09:52 49.8 °F /  9.9 °C 46.8 °F /  8.2 °C 30 in /  1016.5 hPa Calm   5 mph /  8.0 km/h 89 % 0.01 in /  0.3 mm
09:57 50.4 °F /  10.2 °C 46.9 °F /  8.3 °C 30 in /  1016.5 hPa ENE 2 mph /  3.2 km/h 5 mph /  8.0 km/h 88 % 0.01 in /  0.3 mm
10:02 50.4 °F /  10.2 °C 46.6 °F /  8.1 °C 30 in /  1016.5 hPa ENE 2 mph /  3.2 km/h 5 mph /  8.0 km/h 87 % 0.01 in /  0.3 mm
10:07 50.2 °F /  10.1 °C 46.4 °F /  8.0 °C 30 in /  1016.5 hPa Calm   5 mph /  8.0 km/h 87 % 0.01 in /  0.3 mm
10:12 50.5 °F /  10.3 °C 47.5 °F /  8.6 °C 30 in /  1016.5 hPa Calm   5 mph /  8.0 km/h 89 % 0.01 in /  0.3 mm
10:17 50.9 °F /  10.5 °C 46.9 °F /  8.3 °C 30 in /  1016.5 hPa East 2 mph /  3.2 km/h 3 mph /  4.8 km/h 86 % 0.01 in /  0.3 mm
10:22 51.3 °F /  10.7 °C 46.9 °F /  8.3 °C 30 in /  1016.5 hPa Calm   6 mph /  9.7 km/h 85 % 0.01 in /  0.3 mm
10:27 50.7 °F /  10.4 °C 46.4 °F /  8.0 °C 30 in /  1016.5 hPa Calm   6 mph /  9.7 km/h 85 % 0 in /  0.0 mm
10:32 50.7 °F /  10.4 °C 46.4 °F /  8.0 °C 30 in /  1016.5 hPa Calm   5 mph /  8.0 km/h 85 % 0 in /  0.0 mm
10:37 50.9 °F /  10.5 °C 46.6 °F /  8.1 °C 30 in /  1016.5 hPa North 1 mph /  1.6 km/h 4 mph /  6.4 km/h 85 % 0 in /  0.0 mm
10:42 51.3 °F /  10.7 °C 46.9 °F /  8.3 °C 30 in /  1016.5 hPa Calm   3 mph /  4.8 km/h 85 % 0 in /  0.0 mm
10:47 51.8 °F /  11.0 °C 46.4 °F /  8.0 °C 30 in /  1016.5 hPa Calm   3 mph /  4.8 km/h 82 % 0 in /  0.0 mm
10:52 52.2 °F /  11.2 °C 46.6 °F /  8.1 °C 30 in /  1016.5 hPa ENE 1 mph /  1.6 km/h 4 mph /  6.4 km/h 81 % 0 in /  0.0 mm
10:57 52.2 °F /  11.2 °C 46.2 °F /  7.9 °C 30 in /  1016.5 hPa North 1 mph /  1.6 km/h 4 mph /  6.4 km/h 80 % 0 in /  0.0 mm
11:02 52.3 °F /  11.3 °C 46.8 °F /  8.2 °C 30 in /  1016.5 hPa NNE 1 mph /  1.6 km/h 4 mph /  6.4 km/h 81 % 0 in /  0.0 mm
11:07 52.2 °F /  11.2 °C 45.9 °F /  7.7 °C 30 in /  1016.5 hPa NNE 2 mph /  3.2 km/h 4 mph /  6.4 km/h 79 % 0 in /  0.0 mm
11:12 51.8 °F /  11.0 °C 45.9 °F /  7.7 °C 30 in /  1016.5 hPa NNE 2 mph /  3.2 km/h 4 mph /  6.4 km/h 80 % 0 in /  0.0 mm
11:22 51.8 °F /  11.0 °C 45.9 °F /  7.7 °C 30 in /  1016.8 hPa Calm   4 mph /  6.4 km/h 80 % 0 in /  0.0 mm
11:27 51.8 °F /  11.0 °C 45.9 °F /  7.7 °C 30 in /  1016.8 hPa ENE 3 mph /  4.8 km/h 3 mph /  4.8 km/h 80 % 0 in /  0.0 mm
11:32 51.6 °F /  10.9 °C 45.7 °F /  7.6 °C 30 in /  1016.8 hPa East 1 mph /  1.6 km/h 4 mph /  6.4 km/h 80 % 0 in /  0.0 mm
11:37 52.3 °F /  11.3 °C 46.4 °F /  8.0 °C 30 in /  1016.8 hPa NW 2 mph /  3.2 km/h 4 mph /  6.4 km/h 80 % 0 in /  0.0 mm
11:42 52.5 °F /  11.4 °C 45.9 °F /  7.7 °C 30 in /  1016.8 hPa Calm   4 mph /  6.4 km/h 78 % 0 in /  0.0 mm
11:47 52.5 °F /  11.4 °C 45.9 °F /  7.7 °C 30 in /  1016.8 hPa North 3 mph /  4.8 km/h 4 mph /  6.4 km/h 78 % 0 in /  0.0 mm
11:52 52.5 °F /  11.4 °C 45.9 °F /  7.7 °C 30 in /  1016.8 hPa NNW 2 mph /  3.2 km/h 4 mph /  6.4 km/h 78 % 0 in /  0.0 mm
11:57 52.3 °F /  11.3 °C 45.7 °F /  7.6 °C 30 in /  1016.8 hPa NNW 3 mph /  4.8 km/h 4 mph /  6.4 km/h 78 % 0 in /  0.0 mm
12:02 52.2 °F /  11.2 °C 46.2 °F /  7.9 °C 30 in /  1016.8 hPa NE 1 mph /  1.6 km/h 5 mph /  8.0 km/h 80 % 0 in /  0.0 mm
12:07 52.2 °F /  11.2 °C 46.6 °F /  8.1 °C 30 in /  1016.8 hPa NNE 1 mph /  1.6 km/h 5 mph /  8.0 km/h 81 % 0 in /  0.0 mm
12:12 52.3 °F /  11.3 °C 46.9 °F /  8.3 °C 30 in /  1016.8 hPa ENE 1 mph /  1.6 km/h 5 mph /  8.0 km/h 82 % 0 in /  0.0 mm
12:17 52.3 °F /  11.3 °C 46 °F /  7.8 °C 30 in /  1016.8 hPa NNE 6 mph /  9.7 km/h 6 mph /  9.7 km/h 79 % 0 in /  0.0 mm
12:22 52.5 °F /  11.4 °C 45.9 °F /  7.7 °C 30 in /  1016.8 hPa NNW 1 mph /  1.6 km/h 6 mph /  9.7 km/h 78 % 0 in /  0.0 mm
12:27 52.9 °F /  11.6 °C 45.9 °F /  7.7 °C 30 in /  1016.8 hPa Calm   6 mph /  9.7 km/h 77 % 0 in /  0.0 mm
12:32 53.4 °F /  11.9 °C 46.8 °F /  8.2 °C 30 in /  1016.8 hPa NE 4 mph /  6.4 km/h 6 mph /  9.7 km/h 78 % 0 in /  0.0 mm
12:42 53.6 °F /  12.0 °C 46.6 °F /  8.1 °C 30 in /  1016.8 hPa ENE 5 mph /  8.0 km/h 5 mph /  8.0 km/h 77 % 0 in /  0.0 mm
12:47 53.6 °F /  12.0 °C 45.9 °F /  7.7 °C 30 in /  1016.8 hPa ENE 2 mph /  3.2 km/h 7 mph /  11.3 km/h 75 % 0 in /  0.0 mm
12:52 53.2 °F /  11.8 °C 45.1 °F /  7.3 °C 30 in /  1016.8 hPa ENE 4 mph /  6.4 km/h 8 mph /  12.9 km/h 74 % 0 in /  0.0 mm
12:57 53.2 °F /  11.8 °C 45.5 °F /  7.5 °C 30 in /  1016.8 hPa NE 3 mph /  4.8 km/h 8 mph /  12.9 km/h 75 % 0 in /  0.0 mm
13:02 53.2 °F /  11.8 °C 45.5 °F /  7.5 °C 30 in /  1016.8 hPa ENE 2 mph /  3.2 km/h 8 mph /  12.9 km/h 75 % 0 in /  0.0 mm
13:12 54.5 °F /  12.5 °C 46.8 °F /  8.2 °C 30 in /  1016.8 hPa ENE 5 mph /  8.0 km/h 7 mph /  11.3 km/h 75 % 0 in /  0.0 mm
13:17 54.5 °F /  12.5 °C 46.8 °F /  8.2 °C 30 in /  1016.8 hPa NE 1 mph /  1.6 km/h 7 mph /  11.3 km/h 75 % 0 in /  0.0 mm
13:22 54.3 °F /  12.4 °C 46.6 °F /  8.1 °C 30 in /  1016.8 hPa NE 3 mph /  4.8 km/h 7 mph /  11.3 km/h 75 % 0 in /  0.0 mm
13:27 54 °F /  12.2 °C 46.2 °F /  7.9 °C 30 in /  1016.8 hPa NE 3 mph /  4.8 km/h 7 mph /  11.3 km/h 75 % 0 in /  0.0 mm
13:32 54 °F /  12.2 °C 45.5 °F /  7.5 °C 30 in /  1016.8 hPa NE 3 mph /  4.8 km/h 7 mph /  11.3 km/h 73 % 0 in /  0.0 mm
13:37 54.1 °F /  12.3 °C 45.3 °F /  7.4 °C 30 in /  1016.8 hPa NE 4 mph /  6.4 km/h 7 mph /  11.3 km/h 72 % 0 in /  0.0 mm
13:42 54.3 °F /  12.4 °C 45.5 °F /  7.5 °C 30 in /  1016.8 hPa North 5 mph /  8.0 km/h 9 mph /  14.5 km/h 72 % 0 in /  0.0 mm
13:47 54.9 °F /  12.7 °C 46 °F /  7.8 °C 30 in /  1016.5 hPa ENE 3 mph /  4.8 km/h 9 mph /  14.5 km/h 72 % 0 in /  0.0 mm
13:52 55.6 °F /  13.1 °C 47.1 °F /  8.4 °C 30 in /  1016.5 hPa NE 7 mph /  11.3 km/h 9 mph /  14.5 km/h 73 % 0 in /  0.0 mm
13:57 55.9 °F /  13.3 °C 46.2 °F /  7.9 °C 30 in /  1016.5 hPa ENE 1 mph /  1.6 km/h 9 mph /  14.5 km/h 70 % 0 in /  0.0 mm
14:02 55.9 °F /  13.3 °C 45.5 °F /  7.5 °C 30 in /  1016.5 hPa ENE 6 mph /  9.7 km/h 11 mph /  17.7 km/h 68 % 0 in /  0.0 mm
14:07 55.8 °F /  13.2 °C 46 °F /  7.8 °C 30 in /  1016.5 hPa ENE 4 mph /  6.4 km/h 11 mph /  17.7 km/h 70 % 0 in /  0.0 mm
14:12 55.4 °F /  13.0 °C 46.2 °F /  7.9 °C 30 in /  1016.5 hPa NE 2 mph /  3.2 km/h 9 mph /  14.5 km/h 71 % 0 in /  0.0 mm
14:17 55.2 °F /  12.9 °C 45.7 °F /  7.6 °C 30 in /  1016.5 hPa NNE 4 mph /  6.4 km/h 9 mph /  14.5 km/h 70 % 0 in /  0.0 mm
14:22 55.6 °F /  13.1 °C 46 °F /  7.8 °C 30 in /  1016.5 hPa East 3 mph /  4.8 km/h 9 mph /  14.5 km/h 70 % 0 in /  0.0 mm
14:32 56.1 °F /  13.4 °C 45.3 °F /  7.4 °C 30 in /  1016.5 hPa ENE 2 mph /  3.2 km/h 10 mph /  16.1 km/h 67 % 0 in /  0.0 mm
14:37 56.1 °F /  13.4 °C 46 °F /  7.8 °C 30 in /  1016.5 hPa NE 4 mph /  6.4 km/h 10 mph /  16.1 km/h 69 % 0 in /  0.0 mm
14:42 56.1 °F /  13.4 °C 45.7 °F /  7.6 °C 30 in /  1016.5 hPa NE 6 mph /  9.7 km/h 10 mph /  16.1 km/h 68 % 0 in /  0.0 mm
14:47 56.7 °F /  13.7 °C 46.2 °F /  7.9 °C 30 in /  1016.5 hPa East 3 mph /  4.8 km/h 9 mph /  14.5 km/h 68 % 0 in /  0.0 mm
14:52 56.7 °F /  13.7 °C 47.7 °F /  8.7 °C 30 in /  1016.1 hPa NNW 4 mph /  6.4 km/h 9 mph /  14.5 km/h 72 % 0 in /  0.0 mm
14:57 56.7 °F /  13.7 °C 46.6 °F /  8.1 °C 30 in /  1016.5 hPa NE 7 mph /  11.3 km/h 9 mph /  14.5 km/h 69 % 0 in /  0.0 mm
15:02 56.7 °F /  13.7 °C 46.9 °F /  8.3 °C 30 in /  1016.5 hPa ENE 7 mph /  11.3 km/h 9 mph /  14.5 km/h 70 % 0 in /  0.0 mm
15:07 56.8 °F /  13.8 °C 46.8 °F /  8.2 °C 30 in /  1016.5 hPa NNW 3 mph /  4.8 km/h 9 mph /  14.5 km/h 69 % 0 in /  0.0 mm
15:12 56.8 °F /  13.8 °C 46 °F /  7.8 °C 30 in /  1016.5 hPa ENE 5 mph /  8.0 km/h 10 mph /  16.1 km/h 67 % 0 in /  0.0 mm
15:17 56.7 °F /  13.7 °C 45.9 °F /  7.7 °C 30 in /  1016.5 hPa North 3 mph /  4.8 km/h 11 mph /  17.7 km/h 67 % 0 in /  0.0 mm
15:22 56.8 °F /  13.8 °C 47.1 °F /  8.4 °C 30 in /  1016.5 hPa NE 8 mph /  12.9 km/h 11 mph /  17.7 km/h 70 % 0 in /  0.0 mm
15:27 56.8 °F /  13.8 °C 46.4 °F /  8.0 °C 30 in /  1016.5 hPa ENE 6 mph /  9.7 km/h 11 mph /  17.7 km/h 68 % 0 in /  0.0 mm
15:32 56.7 °F /  13.7 °C 45.5 °F /  7.5 °C 30 in /  1016.5 hPa ENE 3 mph /  4.8 km/h 10 mph /  16.1 km/h 66 % 0 in /  0.0 mm
15:37 56.5 °F /  13.6 °C 45.7 °F /  7.6 °C 30 in /  1016.5 hPa NE 5 mph /  8.0 km/h 10 mph /  16.1 km/h 67 % 0 in /  0.0 mm
15:42 56.7 °F /  13.7 °C 46.6 °F /  8.1 °C 30 in /  1016.5 hPa ENE 2 mph /  3.2 km/h 10 mph /  16.1 km/h 69 % 0 in /  0.0 mm
15:47 57.2 °F /  14.0 °C 46.8 °F /  8.2 °C 30 in /  1016.5 hPa ENE 6 mph /  9.7 km/h 9 mph /  14.5 km/h 68 % 0 in /  0.0 mm
15:52 57.9 °F /  14.4 °C 47.5 °F /  8.6 °C 30 in /  1016.5 hPa NE 7 mph /  11.3 km/h 8 mph /  12.9 km/h 68 % 0 in /  0.0 mm
15:57 58.1 °F /  14.5 °C 46.4 °F /  8.0 °C 30 in /  1016.5 hPa ENE 5 mph /  8.0 km/h 11 mph /  17.7 km/h 65 % 0 in /  0.0 mm
16:02 57.9 °F /  14.4 °C 46.2 °F /  7.9 °C 30 in /  1016.5 hPa ENE 6 mph /  9.7 km/h 11 mph /  17.7 km/h 65 % 0 in /  0.0 mm
16:12 57.4 °F /  14.1 °C 46 °F /  7.8 °C 30 in /  1016.5 hPa NNW 5 mph /  8.0 km/h 7 mph /  11.3 km/h 66 % 0 in /  0.0 mm
16:17 57 °F /  13.9 °C 46.6 °F /  8.1 °C 30 in /  1016.5 hPa NNE 2 mph /  3.2 km/h 8 mph /  12.9 km/h 68 % 0 in /  0.0 mm
16:22 57 °F /  13.9 °C 46.2 °F /  7.9 °C 30 in /  1016.5 hPa NNE 3 mph /  4.8 km/h 8 mph /  12.9 km/h 67 % 0 in /  0.0 mm
16:27 57 °F /  13.9 °C 46.6 °F /  8.1 °C 30 in /  1016.5 hPa NNW 1 mph /  1.6 km/h 10 mph /  16.1 km/h 68 % 0 in /  0.0 mm
16:32 57 °F /  13.9 °C 46.6 °F /  8.1 °C 30 in /  1016.5 hPa NNW 4 mph /  6.4 km/h 10 mph /  16.1 km/h 68 % 0 in /  0.0 mm
16:37 57.4 °F /  14.1 °C 46 °F /  7.8 °C 30 in /  1016.5 hPa NNE 3 mph /  4.8 km/h 6 mph /  9.7 km/h 66 % 0 in /  0.0 mm
16:42 57.6 °F /  14.2 °C 45.9 °F /  7.7 °C 30 in /  1016.5 hPa NE 4 mph /  6.4 km/h 8 mph /  12.9 km/h 65 % 0 in /  0.0 mm
16:47 58.3 °F /  14.6 °C 47.8 °F /  8.8 °C 30 in /  1016.5 hPa NE 2 mph /  3.2 km/h 9 mph /  14.5 km/h 68 % 0 in /  0.0 mm
16:52 58.8 °F /  14.9 °C 47.5 °F /  8.6 °C 30 in /  1016.5 hPa North 1 mph /  1.6 km/h 9 mph /  14.5 km/h 66 % 0 in /  0.0 mm
17:02 58.8 °F /  14.9 °C 46.6 °F /  8.1 °C 30 in /  1016.5 hPa North 3 mph /  4.8 km/h 9 mph /  14.5 km/h 64 % 0 in /  0.0 mm
17:07 59.2 °F /  15.1 °C 46.9 °F /  8.3 °C 30 in /  1016.5 hPa NW 3 mph /  4.8 km/h 9 mph /  14.5 km/h 64 % 0 in /  0.0 mm
17:12 59.7 °F /  15.4 °C 47.1 °F /  8.4 °C 30 in /  1016.5 hPa NW 1 mph /  1.6 km/h 9 mph /  14.5 km/h 63 % 0 in /  0.0 mm
17:17 60.4 °F /  15.8 °C 47.3 °F /  8.5 °C 30 in /  1016.5 hPa NNW 5 mph /  8.0 km/h 8 mph /  12.9 km/h 62 % 0 in /  0.0 mm
17:22 60.1 °F /  15.6 °C 46.9 °F /  8.3 °C 30 in /  1016.8 hPa NW 2 mph /  3.2 km/h 7 mph /  11.3 km/h 62 % 0 in /  0.0 mm
17:27 59.7 °F /  15.4 °C 46.8 °F /  8.2 °C 30 in /  1016.8 hPa NE 4 mph /  6.4 km/h 7 mph /  11.3 km/h 62 % 0 in /  0.0 mm
17:32 59.7 °F /  15.4 °C 46.8 °F /  8.2 °C 30 in /  1016.8 hPa NE 5 mph /  8.0 km/h 7 mph /  11.3 km/h 62 % 0 in /  0.0 mm
17:37 59.2 °F /  15.1 °C 46.6 °F /  8.1 °C 30 in /  1016.8 hPa ENE 4 mph /  6.4 km/h 7 mph /  11.3 km/h 63 % 0 in /  0.0 mm
17:47 58.5 °F /  14.7 °C 46.8 °F /  8.2 °C 30 in /  1016.8 hPa NNW 2 mph /  3.2 km/h 6 mph /  9.7 km/h 65 % 0 in /  0.0 mm
17:52 58.3 °F /  14.6 °C 46.9 °F /  8.3 °C 30 in /  1016.8 hPa NE 1 mph /  1.6 km/h 6 mph /  9.7 km/h 66 % 0 in /  0.0 mm
17:57 58.1 °F /  14.5 °C 46.4 °F /  8.0 °C 30 in /  1016.8 hPa NNE 6 mph /  9.7 km/h 6 mph /  9.7 km/h 65 % 0 in /  0.0 mm
18:02 57.9 °F /  14.4 °C 46.2 °F /  7.9 °C 30 in /  1016.8 hPa NE 4 mph /  6.4 km/h 7 mph /  11.3 km/h 65 % 0 in /  0.0 mm
18:07 58.1 °F /  14.5 °C 46.8 °F /  8.2 °C 30 in /  1016.8 hPa NNE 3 mph /  4.8 km/h 7 mph /  11.3 km/h 66 % 0 in /  0.0 mm
18:12 57.9 °F /  14.4 °C 46.9 °F /  8.3 °C 30 in /  1016.8 hPa NNE 5 mph /  8.0 km/h 7 mph /  11.3 km/h 67 % 0 in /  0.0 mm
18:17 57.7 °F /  14.3 °C 46.9 °F /  8.3 °C 30 in /  1017.2 hPa NNE 3 mph /  4.8 km/h 7 mph /  11.3 km/h 67 % 0 in /  0.0 mm
18:22 57.7 °F /  14.3 °C 47.7 °F /  8.7 °C 30 in /  1017.2 hPa East 3 mph /  4.8 km/h 7 mph /  11.3 km/h 69 % 0 in /  0.0 mm
18:27 57.4 °F /  14.1 °C 47.7 °F /  8.7 °C 30 in /  1017.2 hPa ENE 5 mph /  8.0 km/h 7 mph /  11.3 km/h 70 % 0 in /  0.0 mm
18:32 57.2 °F /  14.0 °C 48.2 °F /  9.0 °C 30 in /  1017.2 hPa ENE 4 mph /  6.4 km/h 7 mph /  11.3 km/h 72 % 0 in /  0.0 mm
18:42 57.2 °F /  14.0 °C 47.8 °F /  8.8 °C 30 in /  1017.2 hPa ENE 2 mph /  3.2 km/h 6 mph /  9.7 km/h 71 % 0 in /  0.0 mm
18:52 57.4 °F /  14.1 °C 48 °F /  8.9 °C 30 in /  1017.2 hPa East 2 mph /  3.2 km/h 4 mph /  6.4 km/h 71 % 0 in /  0.0 mm
18:57 57.4 °F /  14.1 °C 48 °F /  8.9 °C 30 in /  1017.2 hPa ENE 2 mph /  3.2 km/h 4 mph /  6.4 km/h 71 % 0 in /  0.0 mm
19:02 57.4 °F /  14.1 °C 48 °F /  8.9 °C 30 in /  1017.2 hPa East 1 mph /  1.6 km/h 4 mph /  6.4 km/h 71 % 0 in /  0.0 mm
19:12 57.4 °F /  14.1 °C 48 °F /  8.9 °C 30 in /  1017.2 hPa NE 2 mph /  3.2 km/h 3 mph /  4.8 km/h 71 % 0 in /  0.0 mm
19:17 57.2 °F /  14.0 °C 47.8 °F /  8.8 °C 30.1 in /  1017.5 hPa NE 6 mph /  9.7 km/h 6 mph /  9.7 km/h 71 % 0 in /  0.0 mm
19:22 57 °F /  13.9 °C 47.3 °F /  8.5 °C 30.1 in /  1017.5 hPa NNE 2 mph /  3.2 km/h 9 mph /  14.5 km/h 70 % 0 in /  0.0 mm
19:27 56.8 °F /  13.8 °C 47.1 °F /  8.4 °C 30.1 in /  1017.5 hPa North 4 mph /  6.4 km/h 9 mph /  14.5 km/h 70 % 0 in /  0.0 mm
19:32 56.5 °F /  13.6 °C 46.8 °F /  8.2 °C 30.1 in /  1017.5 hPa NE 2 mph /  3.2 km/h 9 mph /  14.5 km/h 70 % 0 in /  0.0 mm
19:42 55.9 °F /  13.3 °C 47.1 °F /  8.4 °C 30.1 in /  1017.5 hPa NE 2 mph /  3.2 km/h 7 mph /  11.3 km/h 72 % 0 in /  0.0 mm
19:47 55.9 °F /  13.3 °C 47.1 °F /  8.4 °C 30.1 in /  1017.5 hPa NNE 4 mph /  6.4 km/h 5 mph /  8.0 km/h 72 % 0 in /  0.0 mm
19:52 55.6 °F /  13.1 °C 47.1 °F /  8.4 °C 30.1 in /  1017.5 hPa NE 4 mph /  6.4 km/h 5 mph /  8.0 km/h 73 % 0 in /  0.0 mm
19:57 55.2 °F /  12.9 °C 47.1 °F /  8.4 °C 30.1 in /  1017.5 hPa NE 2 mph /  3.2 km/h 5 mph /  8.0 km/h 74 % 0 in /  0.0 mm
20:02 55.4 °F /  13.0 °C 47.7 °F /  8.7 °C 30.1 in /  1017.5 hPa NE 3 mph /  4.8 km/h 5 mph /  8.0 km/h 75 % 0 in /  0.0 mm
20:07 55.6 °F /  13.1 °C 47.5 °F /  8.6 °C 30.1 in /  1017.5 hPa NNE 4 mph /  6.4 km/h 4 mph /  6.4 km/h 74 % 0 in /  0.0 mm
20:12 55.8 °F /  13.2 °C 47.7 °F /  8.7 °C 30.1 in /  1017.5 hPa NE 2 mph /  3.2 km/h 4 mph /  6.4 km/h 74 % 0 in /  0.0 mm
20:17 55.9 °F /  13.3 °C 47.5 °F /  8.6 °C 30.1 in /  1017.5 hPa NE 1 mph /  1.6 km/h 4 mph /  6.4 km/h 73 % 0 in /  0.0 mm
20:22 55.9 °F /  13.3 °C 47.8 °F /  8.8 °C 30.1 in /  1017.5 hPa NE 2 mph /  3.2 km/h 4 mph /  6.4 km/h 74 % 0 in /  0.0 mm
20:27 55.8 °F /  13.2 °C 48 °F /  8.9 °C 30.1 in /  1017.8 hPa NE 1 mph /  1.6 km/h 3 mph /  4.8 km/h 75 % 0 in /  0.0 mm
20:32 55.6 °F /  13.1 °C 47.8 °F /  8.8 °C 30.1 in /  1017.8 hPa NE 3 mph /  4.8 km/h 3 mph /  4.8 km/h 75 % 0 in /  0.0 mm
20:37 55.2 °F /  12.9 °C 47.8 °F /  8.8 °C 30.1 in /  1017.8 hPa NNE 4 mph /  6.4 km/h 4 mph /  6.4 km/h 76 % 0 in /  0.0 mm
20:42 54.7 °F /  12.6 °C 47.3 °F /  8.5 °C 30.1 in /  1017.8 hPa North 2 mph /  3.2 km/h 4 mph /  6.4 km/h 76 % 0 in /  0.0 mm
20:47 54.3 °F /  12.4 °C 47.7 °F /  8.7 °C 30.1 in /  1017.8 hPa NNE 3 mph /  4.8 km/h 4 mph /  6.4 km/h 78 % 0 in /  0.0 mm
20:52 54 °F /  12.2 °C 47.3 °F /  8.5 °C 30.1 in /  1017.8 hPa NE 2 mph /  3.2 km/h 4 mph /  6.4 km/h 78 % 0 in /  0.0 mm
20:57 53.8 °F /  12.1 °C 47.1 °F /  8.4 °C 30.1 in /  1017.8 hPa NE 1 mph /  1.6 km/h 4 mph /  6.4 km/h 78 % 0 in /  0.0 mm
21:02 53.6 °F /  12.0 °C 46.9 °F /  8.3 °C 30.1 in /  1017.8 hPa Calm   4 mph /  6.4 km/h 78 % 0 in /  0.0 mm
21:12 53.1 °F /  11.7 °C 47.1 °F /  8.4 °C 30.1 in /  1017.8 hPa Calm   2 mph /  3.2 km/h 80 % 0 in /  0.0 mm
21:17 52.5 °F /  11.4 °C 46.9 °F /  8.3 °C 30.1 in /  1017.8 hPa Calm   1 mph /  1.6 km/h 81 % 0 in /  0.0 mm
21:22 52 °F /  11.1 °C 46.6 °F /  8.1 °C 30.1 in /  1018.2 hPa WNW 2 mph /  3.2 km/h 2 mph /  3.2 km/h 82 % 0 in /  0.0 mm
21:32 51.1 °F /  10.6 °C 46.8 °F /  8.2 °C 30.1 in /  1018.2 hPa NE 1 mph /  1.6 km/h 2 mph /  3.2 km/h 85 % 0 in /  0.0 mm
21:37 51.1 °F /  10.6 °C 46.4 °F /  8.0 °C 30.1 in /  1018.2 hPa Calm   2 mph /  3.2 km/h 84 % 0 in /  0.0 mm
21:42 51.1 °F /  10.6 °C 46.4 °F /  8.0 °C 30.1 in /  1018.2 hPa Calm   2 mph /  3.2 km/h 84 % 0 in /  0.0 mm
21:52 50.9 °F /  10.5 °C 46.2 °F /  7.9 °C 30.1 in /  1018.5 hPa Calm   2 mph /  3.2 km/h 84 % 0 in /  0.0 mm
21:57 50.7 °F /  10.4 °C 46.4 °F /  8.0 °C 30.1 in /  1018.5 hPa Calm   2 mph /  3.2 km/h 85 % 0 in /  0.0 mm
22:02 50.5 °F /  10.3 °C 46.2 °F /  7.9 °C 30.1 in /  1018.5 hPa Calm   2 mph /  3.2 km/h 85 % 0 in /  0.0 mm
22:07 50.5 °F /  10.3 °C 46.2 °F /  7.9 °C 30.1 in /  1018.5 hPa Calm   1 mph /  1.6 km/h 85 % 0 in /  0.0 mm
22:12 50.5 °F /  10.3 °C 46.6 °F /  8.1 °C 30.1 in /  1018.5 hPa Calm   1 mph /  1.6 km/h 86 % 0 in /  0.0 mm
22:17 50.4 °F /  10.2 °C 46.4 °F /  8.0 °C 30.1 in /  1018.5 hPa Calm   1 mph /  1.6 km/h 86 % 0 in /  0.0 mm
22:22 50.5 °F /  10.3 °C 46.8 °F /  8.2 °C 30.1 in /  1018.5 hPa NNE 1 mph /  1.6 km/h 1 mph /  1.6 km/h 87 % 0 in /  0.0 mm
22:27 50.4 °F /  10.2 °C 46.4 °F /  8.0 °C 30.1 in /  1018.5 hPa Calm   1 mph /  1.6 km/h 86 % 0 in /  0.0 mm
22:32 49.8 °F /  9.9 °C 45.9 °F /  7.7 °C 30.1 in /  1018.5 hPa North 1 mph /  1.6 km/h 2 mph /  3.2 km/h 86 % 0 in /  0.0 mm
22:42 49.3 °F /  9.6 °C 45.9 °F /  7.7 °C 30.1 in /  1018.5 hPa Calm   2 mph /  3.2 km/h 88 % 0 in /  0.0 mm
22:47 48.9 °F /  9.4 °C 45.5 °F /  7.5 °C 30.1 in /  1018.5 hPa Calm   2 mph /  3.2 km/h 88 % 0 in /  0.0 mm
22:52 48.9 °F /  9.4 °C 45.5 °F /  7.5 °C 30.1 in /  1018.5 hPa Calm   2 mph /  3.2 km/h 88 % 0 in /  0.0 mm
22:57 48.7 °F /  9.3 °C 45.3 °F /  7.4 °C 30.1 in /  1018.5 hPa Calm   2 mph /  3.2 km/h 88 % 0 in /  0.0 mm
23:02 48.4 °F /  9.1 °C 45.3 °F /  7.4 °C 30.1 in /  1018.5 hPa Calm   2 mph /  3.2 km/h 89 % 0 in /  0.0 mm
23:12 48 °F /  8.9 °C 45.1 °F /  7.3 °C 30.1 in /  1018.5 hPa Calm   1 mph /  1.6 km/h 90 % 0 in /  0.0 mm
23:17 47.8 °F /  8.8 °C 45 °F /  7.2 °C 30.1 in /  1018.5 hPa Calm   1 mph /  1.6 km/h 90 % 0 in /  0.0 mm
23:22 47.5 °F /  8.6 °C 44.8 °F /  7.1 °C 30.1 in /  1018.5 hPa Calm   1 mph /  1.6 km/h 90 % 0 in /  0.0 mm
23:27 47.5 °F /  8.6 °C 45 °F /  7.2 °C 30.1 in /  1018.5 hPa NNW 1 mph /  1.6 km/h 1 mph /  1.6 km/h 91 % 0 in /  0.0 mm
23:32 47.5 °F /  8.6 °C 45 °F /  7.2 °C 30.1 in /  1018.5 hPa NNW 1 mph /  1.6 km/h 1 mph /  1.6 km/h 91 % 0 in /  0.0 mm
23:37 47.7 °F /  8.7 °C 45.1 °F /  7.3 °C 30.1 in /  1018.5 hPa NNW 1 mph /  1.6 km/h 2 mph /  3.2 km/h 91 % 0 in /  0.0 mm
23:42 47.5 °F /  8.6 °C 44.8 °F /  7.1 °C 30.1 in /  1018.5 hPa Calm   2 mph /  3.2 km/h 90 % 0 in /  0.0 mm
23:47 47.3 °F /  8.5 °C 44.6 °F /  7.0 °C 30.1 in /  1018.8 hPa Calm   2 mph /  3.2 km/h 90 % 0 in /  0.0 mm
23:52 47.1 °F /  8.4 °C 44.4 °F /  6.9 °C 30.1 in /  1018.8 hPa NNW 1 mph /  1.6 km/h 1 mph /  1.6 km/h 90 % 0 in /  0.0 mm
23:57 47.3 °F /  8.5 °C 44.6 °F /  7.0 °C 30.1 in /  1018.8 hPa NNW 1 mph /  1.6 km/h 1 mph /  1.6 km/h 90 % 0 in /  0.0 mm
Meteo18
Compliments of Weather Underground - 4 mb

Script developed by  Jim McMurry - jmcmurry@mwt.net Adapted for the template by  Wim van der Kuil - Leuven-Template.eu

You find our weather info also at:

European Weather Network

Weather Underground

Equipment we use:

Weather-station
Davis Vue

Weather-program
Meteohub

Weather-server
Raspberry PI 2 B+

Provider
1 and 1

Davis Vue

Meteohub

Raspberry PI 2 B+

1 and 1